createdAt,value
2023-02-06T00:02:56.112Z,19.30
2023-02-06T00:08:01.827Z,19.30
2023-02-06T00:13:07.269Z,19.20
2023-02-06T00:18:13.040Z,19.20
2023-02-06T00:23:18.704Z,19.20
2023-02-06T00:28:24.239Z,19.30
2023-02-06T00:33:29.797Z,19.20
2023-02-06T00:38:35.778Z,19.20
2023-02-06T00:43:42.748Z,19.20
2023-02-06T00:48:48.330Z,19.30
2023-02-06T00:53:53.626Z,19.20
2023-02-06T00:58:59.083Z,19.20
2023-02-06T01:04:04.186Z,19.20
2023-02-06T01:09:09.598Z,19.20
2023-02-06T01:14:15.342Z,19.20
2023-02-06T01:19:21.581Z,19.20
2023-02-06T01:24:26.827Z,19.20
2023-02-06T01:29:32.373Z,19.20
2023-02-06T01:34:37.734Z,19.10
2023-02-06T01:39:42.974Z,19.10
2023-02-06T01:44:48.347Z,19.10
2023-02-06T01:49:53.995Z,19.10
2023-02-06T01:55:06.436Z,19.10
2023-02-06T02:00:13.501Z,19.10
2023-02-06T02:05:20.770Z,19.40
2023-02-06T02:10:26.468Z,19.30
2023-02-06T02:16:12.870Z,19.30
2023-02-06T02:21:43.224Z,19.30
2023-02-06T02:27:07.137Z,19.40
2023-02-06T02:32:26.172Z,19.40
2023-02-06T02:37:43.971Z,19.50
2023-02-06T02:42:58.718Z,19.60
2023-02-06T02:48:16.688Z,19.50
2023-02-06T02:53:23.222Z,19.60
2023-02-06T02:58:34.441Z,19.60
2023-02-06T03:03:45.044Z,19.50
2023-02-06T03:08:56.561Z,19.70
2023-02-06T03:14:14.361Z,19.60
2023-02-06T03:19:28.072Z,19.80
2023-02-06T03:24:38.729Z,19.70
2023-02-06T03:29:46.359Z,19.60
2023-02-06T03:35:25.282Z,19.60
2023-02-06T03:40:31.660Z,19.60
2023-02-06T03:45:42.089Z,19.70
2023-02-06T03:50:59.209Z,19.70
2023-02-06T03:56:15.443Z,19.70
2023-02-06T04:01:22.932Z,19.80
2023-02-06T04:06:31.665Z,20.00
2023-02-06T04:11:38.103Z,20.00
2023-02-06T04:16:44.986Z,20.00
2023-02-06T04:21:50.791Z,20.00
2023-02-06T04:27:01.541Z,20.20
2023-02-06T04:32:08.127Z,20.20
2023-02-06T04:37:17.804Z,20.00
2023-02-06T04:42:23.306Z,19.90
2023-02-06T04:47:29.035Z,20.00
2023-02-06T04:52:34.601Z,20.40
2023-02-06T04:57:40.898Z,20.40
2023-02-06T05:02:46.643Z,20.40
2023-02-06T05:07:52.359Z,20.70
2023-02-06T05:12:58.307Z,20.80
2023-02-06T05:18:04.205Z,20.70
2023-02-06T05:23:09.414Z,20.80
2023-02-06T05:28:22.224Z,20.90
2023-02-06T05:33:30.665Z,20.90
2023-02-06T05:38:39.116Z,20.80
2023-02-06T05:43:45.249Z,20.70
2023-02-06T05:48:51.453Z,20.80
2023-02-06T05:53:56.910Z,20.70
2023-02-06T05:59:05.189Z,20.80
2023-02-06T06:04:13.770Z,20.80
2023-02-06T06:26:42.611Z,21.20
2023-02-06T06:31:49.445Z,21.20
2023-02-06T06:36:56.396Z,21.20
2023-02-06T06:42:03.178Z,21.20
2023-02-06T06:47:09.238Z,21.30
2023-02-06T06:52:24.554Z,21.30
2023-02-06T06:57:34.184Z,21.10
2023-02-06T07:02:40.449Z,21.10
2023-02-06T07:07:47.302Z,21.00
2023-02-06T07:12:55.512Z,21.10
2023-02-06T07:18:02.172Z,21.10
2023-02-06T07:23:21.453Z,21.10
2023-02-06T07:28:30.636Z,21.00
2023-02-06T07:33:40.607Z,21.10
2023-02-06T07:38:46.873Z,21.10
2023-02-06T07:43:53.667Z,21.10
2023-02-06T07:49:01.140Z,21.10
2023-02-06T07:54:07.324Z,21.00
2023-02-06T07:59:14.011Z,21.00
2023-02-06T08:04:27.179Z,21.10
2023-02-06T08:09:34.029Z,21.00
2023-02-06T08:14:40.653Z,21.00
2023-02-06T08:19:47.410Z,21.00
2023-02-06T08:24:53.300Z,21.00
2023-02-06T08:30:01.261Z,20.90
2023-02-06T08:35:08.080Z,20.90
2023-02-06T08:40:15.465Z,20.80
2023-02-06T08:45:21.880Z,20.80
2023-02-06T08:50:28.461Z,20.80
2023-02-06T08:55:33.677Z,20.80
2023-02-06T09:00:40.450Z,20.80
2023-02-06T09:05:46.850Z,20.80
2023-02-06T09:10:53.314Z,20.80
2023-02-06T09:16:00.649Z,20.70
2023-02-06T09:21:13.328Z,20.70
2023-02-06T09:26:22.045Z,20.60
2023-02-06T09:31:32.357Z,20.50
2023-02-06T09:36:39.214Z,20.40
2023-02-06T09:42:19.097Z,20.40
2023-02-06T09:47:34.773Z,20.40
2023-02-06T09:52:57.179Z,20.30
2023-02-06T09:58:39.948Z,20.30
2023-02-06T10:04:03.787Z,20.30
2023-02-06T10:09:22.700Z,20.20
2023-02-06T10:14:51.544Z,20.20
2023-02-06T10:20:08.354Z,20.30
2023-02-06T10:25:42.839Z,20.20
2023-02-06T10:31:02.798Z,20.20
2023-02-06T10:36:47.372Z,20.20
2023-02-06T10:42:20.165Z,20.20
2023-02-06T10:48:00.765Z,20.20
2023-02-06T10:53:24.144Z,20.20
2023-02-06T10:58:44.807Z,20.20
2023-02-06T11:04:20.023Z,20.10
2023-02-06T11:09:27.007Z,20.20
2023-02-06T11:14:41.011Z,20.10
2023-02-06T11:19:47.504Z,20.20
2023-02-06T11:25:09.812Z,20.20
2023-02-06T11:30:36.364Z,20.10
2023-02-06T11:35:56.677Z,20.10
2023-02-06T11:41:19.741Z,20.10
2023-02-06T11:46:37.083Z,20.10
2023-02-06T11:52:02.065Z,20.10
2023-02-06T11:57:11.286Z,20.00
2023-02-06T12:02:38.382Z,20.00
2023-02-06T12:07:55.841Z,20.00
2023-02-06T12:13:23.459Z,19.90
2023-02-06T12:18:40.152Z,20.00
2023-02-06T12:24:03.597Z,19.90
2023-02-06T12:29:30.007Z,20.00
2023-02-06T12:35:04.617Z,19.90
2023-02-06T12:40:40.436Z,20.00
2023-02-06T12:45:59.641Z,19.90
2023-02-06T12:51:14.936Z,19.90
2023-02-06T12:56:53.378Z,19.90
2023-02-06T13:02:32.712Z,19.80
2023-02-06T13:07:49.689Z,19.90
2023-02-06T13:13:06.792Z,19.80
2023-02-06T13:18:52.308Z,19.80
2023-02-06T13:24:06.072Z,19.90
2023-02-06T13:30:02.498Z,19.80
2023-02-06T13:35:28.407Z,19.80
2023-02-06T13:40:47.670Z,19.80
2023-02-06T13:46:16.224Z,19.80
2023-02-06T13:52:09.502Z,19.70
2023-02-06T13:58:00.583Z,19.80
2023-02-06T14:03:36.679Z,19.80
2023-02-06T14:09:16.283Z,19.80
2023-02-06T14:14:52.171Z,19.80
2023-02-06T14:20:19.152Z,19.80
2023-02-06T14:25:46.307Z,19.70
2023-02-06T14:31:28.780Z,19.70
2023-02-06T14:37:35.322Z,19.70
2023-02-06T14:43:04.765Z,19.60
2023-02-06T14:54:10.212Z,19.60
2023-02-06T14:59:30.403Z,19.60
2023-02-06T15:05:02.247Z,19.60
2023-02-06T15:10:13.012Z,19.50
2023-02-06T15:15:35.087Z,19.50
2023-02-06T15:20:49.294Z,19.60
2023-02-06T15:26:22.791Z,19.60
2023-02-06T15:31:39.064Z,19.60
2023-02-06T15:36:49.369Z,19.60
2023-02-06T15:41:58.806Z,19.50
2023-02-06T15:47:15.849Z,19.50
2023-02-06T15:52:42.883Z,19.50
2023-02-06T16:03:47.929Z,19.50
2023-02-06T16:09:15.954Z,19.50
2023-02-06T16:14:47.055Z,19.40
2023-02-06T16:20:06.975Z,19.50
2023-02-06T16:26:21.477Z,19.50
2023-02-06T16:31:30.219Z,19.50
2023-02-06T16:36:37.058Z,19.40
2023-02-06T16:41:44.921Z,19.40
2023-02-06T16:46:51.642Z,19.40
2023-02-06T16:51:57.932Z,19.40
2023-02-06T16:57:32.482Z,19.40
2023-02-06T17:02:38.708Z,19.40
2023-02-06T17:07:45.810Z,19.40
2023-02-06T17:12:52.346Z,19.40
2023-02-06T17:17:57.677Z,19.40
2023-02-06T17:23:04.361Z,19.40
2023-02-06T17:28:13.237Z,19.40
2023-02-06T17:33:20.018Z,19.40
2023-02-06T17:38:25.927Z,19.40
2023-02-06T17:43:31.916Z,19.30
2023-02-06T17:48:41.199Z,19.40
2023-02-06T17:53:47.047Z,19.30
2023-02-06T17:58:53.367Z,19.30
2023-02-06T18:03:58.606Z,19.30
2023-02-06T18:09:18.436Z,19.40
2023-02-06T18:14:24.997Z,19.30
2023-02-06T18:19:32.283Z,19.30
2023-02-06T18:24:38.144Z,19.30
2023-02-06T18:29:50.197Z,19.30
2023-02-06T18:34:56.876Z,19.30
2023-02-06T18:40:02.937Z,19.30
2023-02-06T18:45:10.182Z,19.30
2023-02-06T18:50:16.993Z,19.30
2023-02-06T18:55:23.180Z,19.30
2023-02-06T19:00:28.691Z,19.30
2023-02-06T19:05:38.970Z,19.40
2023-02-06T19:10:44.912Z,19.30
2023-02-06T19:15:51.504Z,19.30
2023-02-06T19:20:57.732Z,19.30
2023-02-06T19:26:04.090Z,19.40
2023-02-06T19:31:12.266Z,19.40
2023-02-06T19:36:19.636Z,19.40
2023-02-06T19:41:28.227Z,19.40
2023-02-06T19:46:34.735Z,19.40
2023-02-06T19:51:42.392Z,19.40
2023-02-06T19:56:52.139Z,19.40
2023-02-06T20:02:01.808Z,19.40
2023-02-06T20:07:08.201Z,19.40
2023-02-06T20:12:15.408Z,19.40
2023-02-06T20:17:21.727Z,19.40
2023-02-06T20:22:27.718Z,19.40
2023-02-06T20:27:33.689Z,19.40
2023-02-06T20:32:39.816Z,19.40
2023-02-06T20:37:45.334Z,19.40
2023-02-06T20:42:51.786Z,19.40
2023-02-06T20:53:15.943Z,19.50
2023-02-06T20:58:22.766Z,19.40
2023-02-06T21:03:29.124Z,19.40
2023-02-06T21:08:36.566Z,19.40
2023-02-06T21:13:42.968Z,19.40
2023-02-06T21:18:49.293Z,19.50
2023-02-06T21:23:58.738Z,19.40
2023-02-06T21:29:06.157Z,19.40
2023-02-06T21:34:23.588Z,19.50
2023-02-06T21:39:30.304Z,19.50
2023-02-06T21:44:38.686Z,19.50
2023-02-06T21:49:44.605Z,19.40
2023-02-06T21:54:50.867Z,19.50
2023-02-06T21:59:57.309Z,19.50
2023-02-06T22:05:03.648Z,19.60
2023-02-06T22:10:09.595Z,19.50
2023-02-06T22:15:15.400Z,19.50
2023-02-06T22:20:21.625Z,19.50
2023-02-06T22:25:28.586Z,19.50
2023-02-06T22:30:34.442Z,19.60
2023-02-06T22:35:42.190Z,19.60
2023-02-06T22:40:48.318Z,19.50
2023-02-06T22:45:53.574Z,19.50
2023-02-06T22:51:08.038Z,19.60
2023-02-06T22:56:29.370Z,19.60
2023-02-06T23:01:42.230Z,19.60
2023-02-06T23:06:49.621Z,19.60
2023-02-06T23:11:57.488Z,19.60
2023-02-06T23:17:04.701Z,19.60
2023-02-06T23:22:12.240Z,19.60
2023-02-06T23:27:18.391Z,19.70
2023-02-06T23:32:23.900Z,19.60
2023-02-06T23:37:29.963Z,19.60
2023-02-06T23:42:36.303Z,19.70
2023-02-06T23:47:42.509Z,19.70
2023-02-06T23:52:48.874Z,19.60
2023-02-06T23:57:54.724Z,19.70
